Nearby METAR Reports

 

EGUW - Wattisham Raf, United Kingdom
Distance from station: SW 12mi, 19km
Updated: 21/06/2021 11:50
Light rain, Overcast
Light rain, Overcast
 Wind from NE
Wind: NE 16 mph , 26 km/h
Temperature: 13°C
Dew Point: 10°C
Humidity: 82%
Barometer: 1012 hPa
Summary: Light rain
Clouds: Overcast
Visibility: 6 miles , 10 km
Cloud details: Few Clouds 671 m
Overcast 2134 m
2021/06/21 10:50 EGUW 211050Z 04014KT 9999 -RA FEW022 OVC070 13/10 Q1012 TEMPO SCT022 RMK BLU TEMPO WHT
EGUL - Lakenheath Raf, United Kingdom
Distance from station: WNW 29mi, 47km
Updated: 21/06/2021 11:56
Clear
Clear
 Wind from N
Wind: N 14 mph , 22 km/h
Temperature: 15°C
Dew Point: -9°C
Humidity: 18%
Barometer: 1013.2 hPa
Clouds: Clear
Visibility: 6 miles , 10 km
2021/06/21 10:56 EGUL 211056Z AUTO 01012KT 9999 CLR 15/M09 A2992 RMK AO2 SLP135 T01451089 $
 
EGUN - Mildenhall Raf, United Kingdom
Distance from station: WNW 32mi, 51km
Updated: 21/06/2021 11:56
Mostly cloudy
Mostly cloudy
 Wind from NNE
Wind: NNE 13 mph , 20 km/h
Temperature: 15°C
Dew Point: 13°C
Humidity: 88%
Barometer: 1013.2 hPa
Clouds: Mostly cloudy
Visibility: 6 miles , 10 km
Cloud details: Partly cloudy 792 m
Mostly cloudy 2134 m
Mostly cloudy 4572 m
2021/06/21 10:56 EGUN 211056Z 03011KT 9999 SCT026 BKN070 BKN150 15/13 A2992 RMK AO2A SLP135 T01480127
EGSH - Norwich Wea Cntr, United Kingdom
Distance from station: N 32mi, 52km
Updated: 21/06/2021 11:50
Partly cloudy
Partly cloudy
 Wind from NNE
Wind: NNE 14 mph , 22 km/h
Temperature: 15°C
Dew Point: 9°C
Humidity: 68%
Barometer: 1014 hPa
Clouds: Partly cloudy
Visibility: 6 miles , 10 km
Cloud details: Partly cloudy 701 m
2021/06/21 10:50 EGSH 211050Z 03012KT 9999 SCT023 15/09 Q1014
 
EGYM - Marham Raf, United Kingdom
Distance from station: NW 39mi, 62km
Updated: 21/06/2021 11:50
Mostly cloudy
Mostly cloudy
 Wind from NNE
Wind: NNE 13 mph , 20 km/h
Temperature: 14°C
Dew Point: 10°C
Humidity: 77%
Barometer: 1014 hPa
Clouds: Mostly cloudy
Visibility: 6 miles , 10 km
Cloud details: Few Clouds 671 m
Mostly cloudy 2438 m
2021/06/21 10:50 EGYM 211050Z 03011KT 9999 FEW022 BKN080 14/10 Q1014 BLU TEMPO SCT023 RMK BLU TEMPO WHT
EGSC - Cambridge, United Kingdom
Distance from station: W 43mi, 69km
Updated: 21/06/2021 11:50
Mostly cloudy
Mostly cloudy
 Wind from NE
Wind: NE 14 mph , 22 km/h
Temperature: 15°C
Dew Point: 9°C
Humidity: 68%
Barometer: 1013 hPa
Clouds: Mostly cloudy
Visibility: 6 miles , 10 km
Cloud details: Partly cloudy 762 m
Mostly cloudy 853 m
2021/06/21 10:50 EGSC 211050Z 04012KT 9999 SCT025 BKN028 15/09 Q1013
 
EGSS - Stansted Airport, United Kingdom
Distance from station: WSW 47mi, 76km
Updated: 21/06/2021 11:50
Light rain, Few clouds
Light rain, Few clouds
 Wind from NNE
Wind: NNE 13 mph , 20 km/h
Temperature: 13°C
Dew Point: 11°C
Humidity: 88%
Barometer: 1013 hPa
Summary: Light rain
Clouds: Few Clouds
Visibility: 6 miles , 10 km
Cloud details: Few Clouds 549 m
2021/06/21 10:50 EGSS 211050Z AUTO 03011KT 9999 -RA FEW018 13/11 Q1013
EGMC - Southend-On-Sea, United Kingdom
Distance from station: SSW 50mi, 80km
Updated: 21/06/2021 11:50
Light drizzle, Few clouds
Light drizzle, Few clouds
 Wind from NNE
Wind: NNE 9 mph , 15 km/h
Temperature: 13°C
Dew Point: 11°C
Humidity: 88%
Barometer: 1012 hPa
Summary: Light Drizzle
Clouds: Few Clouds
Visibility: 6 miles , 10 km
Cloud details: Few Clouds 427 m
2021/06/21 10:50 EGMC 211050Z 02008KT 350V050 9999 -DZ FEW014 13/11 Q1012